sensor_id;sensor_type;location;lat;lon;timestamp;temperature;humidity
57636;DHT22;43465;50.728;4.160;2023-11-21T00:01:54;11.50;99.90
57636;DHT22;43465;50.728;4.160;2023-11-21T00:04:20;11.50;99.90
57636;DHT22;43465;50.728;4.160;2023-11-21T00:06:46;11.50;99.90
57636;DHT22;43465;50.728;4.160;2023-11-21T00:09:13;11.50;99.90
57636;DHT22;43465;50.728;4.160;2023-11-21T00:11:41;11.50;99.90
57636;DHT22;43465;50.728;4.160;2023-11-21T00:14:07;11.50;99.90
57636;DHT22;43465;50.728;4.160;2023-11-21T00:16:33;11.60;99.90
57636;DHT22;43465;50.728;4.160;2023-11-21T00:18:59;11.50;99.90
57636;DHT22;43465;50.728;4.160;2023-11-21T00:21:25;11.50;99.90
57636;DHT22;43465;50.728;4.160;2023-11-21T00:23:51;11.40;99.90
57636;DHT22;43465;50.728;4.160;2023-11-21T00:26:16;11.50;99.90
57636;DHT22;43465;50.728;4.160;2023-11-21T00:28:42;11.40;99.90
57636;DHT22;43465;50.728;4.160;2023-11-21T00:31:08;11.30;99.90
57636;DHT22;43465;50.728;4.160;2023-11-21T00:33:33;11.20;99.90
57636;DHT22;43465;50.728;4.160;2023-11-21T00:35:59;11.20;99.90
57636;DHT22;43465;50.728;4.160;2023-11-21T00:38:26;11.20;99.90
57636;DHT22;43465;50.728;4.160;2023-11-21T00:40:52;11.10;99.90
57636;DHT22;43465;50.728;4.160;2023-11-21T00:43:22;11.00;99.90
57636;DHT22;43465;50.728;4.160;2023-11-21T00:45:48;10.90;99.90
57636;DHT22;43465;50.728;4.160;2023-11-21T00:48:14;10.80;99.90
57636;DHT22;43465;50.728;4.160;2023-11-21T00:50:40;10.70;99.90
57636;DHT22;43465;50.728;4.160;2023-11-21T00:53:06;10.70;99.90
57636;DHT22;43465;50.728;4.160;2023-11-21T00:55:33;10.70;99.90
57636;DHT22;43465;50.728;4.160;2023-11-21T00:57:59;10.60;99.90
57636;DHT22;43465;50.728;4.160;2023-11-21T01:00:25;10.60;99.90
57636;DHT22;43465;50.728;4.160;2023-11-21T01:02:51;10.60;99.90
57636;DHT22;43465;50.728;4.160;2023-11-21T01:05:17;10.60;99.90
57636;DHT22;43465;50.728;4.160;2023-11-21T01:07:43;10.60;99.90
57636;DHT22;43465;50.728;4.160;2023-11-21T01:10:09;10.60;99.90
57636;DHT22;43465;50.728;4.160;2023-11-21T01:12:36;10.60;99.90
57636;DHT22;43465;50.728;4.160;2023-11-21T01:15:03;10.70;99.90
57636;DHT22;43465;50.728;4.160;2023-11-21T01:17:29;10.60;99.90
57636;DHT22;43465;50.728;4.160;2023-11-21T01:19:55;10.60;99.90
57636;DHT22;43465;50.728;4.160;2023-11-21T01:22:21;10.70;99.90
57636;DHT22;43465;50.728;4.160;2023-11-21T01:24:52;10.70;99.90
57636;DHT22;43465;50.728;4.160;2023-11-21T01:27:18;10.80;99.90
57636;DHT22;43465;50.728;4.160;2023-11-21T01:29:44;10.90;99.90
57636;DHT22;43465;50.728;4.160;2023-11-21T01:32:10;10.90;99.90
57636;DHT22;43465;50.728;4.160;2023-11-21T01:34:36;11.00;99.90
57636;DHT22;43465;50.728;4.160;2023-11-21T01:37:02;11.00;99.90
57636;DHT22;43465;50.728;4.160;2023-11-21T01:39:30;11.10;99.90
57636;DHT22;43465;50.728;4.160;2023-11-21T01:41:55;11.00;99.90
57636;DHT22;43465;50.728;4.160;2023-11-21T01:44:24;11.00;99.90
57636;DHT22;43465;50.728;4.160;2023-11-21T01:46:50;11.00;99.90
57636;DHT22;43465;50.728;4.160;2023-11-21T01:49:17;11.00;99.90
57636;DHT22;43465;50.728;4.160;2023-11-21T01:51:48;11.00;99.90
57636;DHT22;43465;50.728;4.160;2023-11-21T01:54:16;11.10;99.90
57636;DHT22;43465;50.728;4.160;2023-11-21T01:56:44;11.10;99.90
57636;DHT22;43465;50.728;4.160;2023-11-21T01:59:12;11.10;99.90
57636;DHT22;43465;50.728;4.160;2023-11-21T02:01:39;11.20;99.90
57636;DHT22;43465;50.728;4.160;2023-11-21T02:04:05;11.20;99.90
57636;DHT22;43465;50.728;4.160;2023-11-21T02:06:30;11.20;99.90
57636;DHT22;43465;50.728;4.160;2023-11-21T02:08:56;11.20;99.90
57636;DHT22;43465;50.728;4.160;2023-11-21T02:11:22;11.20;99.90
57636;DHT22;43465;50.728;4.160;2023-11-21T02:13:48;11.20;99.90
57636;DHT22;43465;50.728;4.160;2023-11-21T02:16:15;11.30;99.90
57636;DHT22;43465;50.728;4.160;2023-11-21T02:18:41;11.20;99.90
57636;DHT22;43465;50.728;4.160;2023-11-21T02:21:07;11.20;99.90
57636;DHT22;43465;50.728;4.160;2023-11-21T02:23:33;11.20;99.90
57636;DHT22;43465;50.728;4.160;2023-11-21T02:25:59;11.20;99.90
57636;DHT22;43465;50.728;4.160;2023-11-21T02:28:29;11.30;99.90
57636;DHT22;43465;50.728;4.160;2023-11-21T02:30:55;11.20;99.90
57636;DHT22;43465;50.728;4.160;2023-11-21T02:33:22;11.20;99.90
57636;DHT22;43465;50.728;4.160;2023-11-21T02:35:48;11.20;99.90
57636;DHT22;43465;50.728;4.160;2023-11-21T02:38:13;11.30;99.90
57636;DHT22;43465;50.728;4.160;2023-11-21T02:40:39;11.30;99.90
57636;DHT22;43465;50.728;4.160;2023-11-21T02:43:05;11.30;99.90
57636;DHT22;43465;50.728;4.160;2023-11-21T02:45:31;11.30;99.90
57636;DHT22;43465;50.728;4.160;2023-11-21T02:47:58;11.40;99.90
57636;DHT22;43465;50.728;4.160;2023-11-21T02:50:24;11.40;99.90
57636;DHT22;43465;50.728;4.160;2023-11-21T02:52:50;11.40;99.90
57636;DHT22;43465;50.728;4.160;2023-11-21T02:55:15;11.40;99.90
57636;DHT22;43465;50.728;4.160;2023-11-21T02:57:41;11.40;99.90
57636;DHT22;43465;50.728;4.160;2023-11-21T03:00:07;11.40;99.90
57636;DHT22;43465;50.728;4.160;2023-11-21T03:02:34;11.30;99.90
57636;DHT22;43465;50.728;4.160;2023-11-21T03:05:05;11.20;99.90
57636;DHT22;43465;50.728;4.160;2023-11-21T03:07:31;11.20;99.90
57636;DHT22;43465;50.728;4.160;2023-11-21T03:09:56;11.20;99.90
57636;DHT22;43465;50.728;4.160;2023-11-21T03:12:23;11.00;99.90
57636;DHT22;43465;50.728;4.160;2023-11-21T03:14:48;10.80;99.90
57636;DHT22;43465;50.728;4.160;2023-11-21T03:17:14;10.80;99.90
57636;DHT22;43465;50.728;4.160;2023-11-21T03:19:41;10.90;99.90
57636;DHT22;43465;50.728;4.160;2023-11-21T03:22:07;11.00;99.90
57636;DHT22;43465;50.728;4.160;2023-11-21T03:24:34;11.10;99.90
57636;DHT22;43465;50.728;4.160;2023-11-21T03:27:00;11.10;99.90
57636;DHT22;43465;50.728;4.160;2023-11-21T03:29:25;11.20;99.90
57636;DHT22;43465;50.728;4.160;2023-11-21T03:31:51;11.20;99.90
57636;DHT22;43465;50.728;4.160;2023-11-21T03:34:27;11.30;99.90
57636;DHT22;43465;50.728;4.160;2023-11-21T03:36:53;11.40;99.90
57636;DHT22;43465;50.728;4.160;2023-11-21T03:39:22;11.50;99.90
57636;DHT22;43465;50.728;4.160;2023-11-21T03:41:48;11.50;99.90
57636;DHT22;43465;50.728;4.160;2023-11-21T03:44:14;11.60;99.90
57636;DHT22;43465;50.728;4.160;2023-11-21T03:46:40;11.60;99.90
57636;DHT22;43465;50.728;4.160;2023-11-21T03:49:06;11.60;99.90
57636;DHT22;43465;50.728;4.160;2023-11-21T03:51:33;11.70;99.90
57636;DHT22;43465;50.728;4.160;2023-11-21T03:53:59;11.70;99.90
57636;DHT22;43465;50.728;4.160;2023-11-21T03:56:25;11.60;99.90
57636;DHT22;43465;50.728;4.160;2023-11-21T03:58:50;11.60;99.90
57636;DHT22;43465;50.728;4.160;2023-11-21T04:01:22;11.50;99.90
57636;DHT22;43465;50.728;4.160;2023-11-21T04:03:49;11.50;99.90
57636;DHT22;43465;50.728;4.160;2023-11-21T04:06:15;11.50;99.90
57636;DHT22;43465;50.728;4.160;2023-11-21T04:08:40;11.40;99.90
57636;DHT22;43465;50.728;4.160;2023-11-21T04:11:07;11.40;99.90
57636;DHT22;43465;50.728;4.160;2023-11-21T04:13:32;11.40;99.90
57636;DHT22;43465;50.728;4.160;2023-11-21T04:15:58;11.40;99.90
57636;DHT22;43465;50.728;4.160;2023-11-21T04:18:24;11.40;99.90
57636;DHT22;43465;50.728;4.160;2023-11-21T04:20:49;11.40;99.90
57636;DHT22;43465;50.728;4.160;2023-11-21T04:23:15;11.40;99.90
57636;DHT22;43465;50.728;4.160;2023-11-21T04:25:41;11.30;99.90
57636;DHT22;43465;50.728;4.160;2023-11-21T04:28:06;11.40;99.90
57636;DHT22;43465;50.728;4.160;2023-11-21T04:30:32;11.40;99.90
57636;DHT22;43465;50.728;4.160;2023-11-21T04:32:58;11.40;99.90
57636;DHT22;43465;50.728;4.160;2023-11-21T04:35:24;11.40;99.90
57636;DHT22;43465;50.728;4.160;2023-11-21T04:37:49;11.40;99.90
57636;DHT22;43465;50.728;4.160;2023-11-21T04:40:16;11.50;99.90
57636;DHT22;43465;50.728;4.160;2023-11-21T04:42:42;11.50;99.90
57636;DHT22;43465;50.728;4.160;2023-11-21T04:45:08;11.60;99.90
57636;DHT22;43465;50.728;4.160;2023-11-21T04:47:35;11.60;99.90
57636;DHT22;43465;50.728;4.160;2023-11-21T04:50:01;11.60;99.90
57636;DHT22;43465;50.728;4.160;2023-11-21T04:52:28;11.60;99.90
57636;DHT22;43465;50.728;4.160;2023-11-21T04:54:53;11.60;99.90
57636;DHT22;43465;50.728;4.160;2023-11-21T04:57:20;11.60;99.90
57636;DHT22;43465;50.728;4.160;2023-11-21T04:59:48;11.60;99.90
57636;DHT22;43465;50.728;4.160;2023-11-21T05:02:14;11.60;99.90
57636;DHT22;43465;50.728;4.160;2023-11-21T05:04:39;11.60;99.90
57636;DHT22;43465;50.728;4.160;2023-11-21T05:07:05;11.60;99.90
57636;DHT22;43465;50.728;4.160;2023-11-21T05:09:31;11.60;99.90
57636;DHT22;43465;50.728;4.160;2023-11-21T05:11:58;11.60;99.90
57636;DHT22;43465;50.728;4.160;2023-11-21T05:14:23;11.50;99.90
57636;DHT22;43465;50.728;4.160;2023-11-21T05:16:49;11.50;99.90
57636;DHT22;43465;50.728;4.160;2023-11-21T05:19:16;11.50;99.90
57636;DHT22;43465;50.728;4.160;2023-11-21T05:21:42;11.50;99.90
57636;DHT22;43465;50.728;4.160;2023-11-21T05:24:07;11.50;99.90
57636;DHT22;43465;50.728;4.160;2023-11-21T05:26:33;11.40;99.90
57636;DHT22;43465;50.728;4.160;2023-11-21T05:28:59;11.40;99.90
57636;DHT22;43465;50.728;4.160;2023-11-21T05:31:24;11.30;99.90
57636;DHT22;43465;50.728;4.160;2023-11-21T05:33:50;11.30;99.90
57636;DHT22;43465;50.728;4.160;2023-11-21T05:36:16;11.30;99.90
57636;DHT22;43465;50.728;4.160;2023-11-21T05:38:41;11.30;99.90
57636;DHT22;43465;50.728;4.160;2023-11-21T05:41:07;11.30;99.90
57636;DHT22;43465;50.728;4.160;2023-11-21T05:43:36;11.40;99.90
57636;DHT22;43465;50.728;4.160;2023-11-21T05:46:02;11.40;99.90
57636;DHT22;43465;50.728;4.160;2023-11-21T05:48:27;11.50;99.90
57636;DHT22;43465;50.728;4.160;2023-11-21T05:50:53;11.50;99.90
57636;DHT22;43465;50.728;4.160;2023-11-21T05:53:19;11.50;99.90
57636;DHT22;43465;50.728;4.160;2023-11-21T05:55:44;11.50;99.90
57636;DHT22;43465;50.728;4.160;2023-11-21T05:58:10;11.50;99.90
57636;DHT22;43465;50.728;4.160;2023-11-21T06:00:36;11.50;99.90
57636;DHT22;43465;50.728;4.160;2023-11-21T06:03:02;11.50;99.90
57636;DHT22;43465;50.728;4.160;2023-11-21T06:05:28;11.50;99.90
57636;DHT22;43465;50.728;4.160;2023-11-21T06:07:55;11.40;99.90
57636;DHT22;43465;50.728;4.160;2023-11-21T06:10:24;11.30;99.90
57636;DHT22;43465;50.728;4.160;2023-11-21T06:12:50;11.00;99.90
57636;DHT22;43465;50.728;4.160;2023-11-21T06:15:16;10.80;99.90
57636;DHT22;43465;50.728;4.160;2023-11-21T06:17:44;10.80;99.90
57636;DHT22;43465;50.728;4.160;2023-11-21T06:20:14;10.90;99.90
57636;DHT22;43465;50.728;4.160;2023-11-21T06:22:42;11.10;99.90
57636;DHT22;43465;50.728;4.160;2023-11-21T06:25:08;11.30;99.90
57636;DHT22;43465;50.728;4.160;2023-11-21T06:27:39;11.40;99.90
57636;DHT22;43465;50.728;4.160;2023-11-21T06:30:05;11.50;99.90
57636;DHT22;43465;50.728;4.160;2023-11-21T06:32:32;11.50;99.90
57636;DHT22;43465;50.728;4.160;2023-11-21T06:34:58;11.50;99.90
57636;DHT22;43465;50.728;4.160;2023-11-21T06:37:27;11.60;99.90
57636;DHT22;43465;50.728;4.160;2023-11-21T06:39:53;11.50;99.90
57636;DHT22;43465;50.728;4.160;2023-11-21T06:42:19;11.50;99.90
57636;DHT22;43465;50.728;4.160;2023-11-21T06:44:46;11.40;99.90
57636;DHT22;43465;50.728;4.160;2023-11-21T06:47:11;11.50;99.90
57636;DHT22;43465;50.728;4.160;2023-11-21T06:49:37;11.50;99.90
57636;DHT22;43465;50.728;4.160;2023-11-21T06:52:04;11.60;99.90
57636;DHT22;43465;50.728;4.160;2023-11-21T06:54:31;11.60;99.90
57636;DHT22;43465;50.728;4.160;2023-11-21T06:56:56;11.60;99.90
57636;DHT22;43465;50.728;4.160;2023-11-21T06:59:22;11.60;99.90
57636;DHT22;43465;50.728;4.160;2023-11-21T07:01:49;11.50;99.90
57636;DHT22;43465;50.728;4.160;2023-11-21T07:04:15;11.60;99.90
57636;DHT22;43465;50.728;4.160;2023-11-21T07:06:40;11.60;99.90
57636;DHT22;43465;50.728;4.160;2023-11-21T07:09:07;11.70;99.90
57636;DHT22;43465;50.728;4.160;2023-11-21T07:11:34;11.70;99.90
57636;DHT22;43465;50.728;4.160;2023-11-21T07:14:00;11.70;99.90
57636;DHT22;43465;50.728;4.160;2023-11-21T07:16:38;11.80;99.90
57636;DHT22;43465;50.728;4.160;2023-11-21T07:19:04;11.80;99.90
57636;DHT22;43465;50.728;4.160;2023-11-21T07:21:34;11.70;99.90
57636;DHT22;43465;50.728;4.160;2023-11-21T07:24:00;11.80;99.90
57636;DHT22;43465;50.728;4.160;2023-11-21T07:26:27;11.70;99.90
57636;DHT22;43465;50.728;4.160;2023-11-21T07:28:53;11.70;99.90
57636;DHT22;43465;50.728;4.160;2023-11-21T07:31:18;11.70;99.90
57636;DHT22;43465;50.728;4.160;2023-11-21T07:33:45;11.70;99.90
57636;DHT22;43465;50.728;4.160;2023-11-21T07:36:13;11.70;99.90
57636;DHT22;43465;50.728;4.160;2023-11-21T07:38:39;11.80;99.90
57636;DHT22;43465;50.728;4.160;2023-11-21T07:41:05;11.80;99.90
57636;DHT22;43465;50.728;4.160;2023-11-21T07:43:36;11.90;99.90
57636;DHT22;43465;50.728;4.160;2023-11-21T07:46:02;11.90;99.90
57636;DHT22;43465;50.728;4.160;2023-11-21T07:48:32;12.00;99.90
57636;DHT22;43465;50.728;4.160;2023-11-21T07:50:58;12.00;99.90
57636;DHT22;43465;50.728;4.160;2023-11-21T07:53:25;12.00;99.90
57636;DHT22;43465;50.728;4.160;2023-11-21T07:55:51;12.00;99.90
57636;DHT22;43465;50.728;4.160;2023-11-21T07:58:17;12.00;99.90
57636;DHT22;43465;50.728;4.160;2023-11-21T08:00:43;12.00;99.90
57636;DHT22;43465;50.728;4.160;2023-11-21T08:03:09;12.00;99.90
57636;DHT22;43465;50.728;4.160;2023-11-21T08:05:34;12.00;99.90
57636;DHT22;43465;50.728;4.160;2023-11-21T08:08:00;12.00;99.90
57636;DHT22;43465;50.728;4.160;2023-11-21T08:10:26;12.00;99.90
57636;DHT22;43465;50.728;4.160;2023-11-21T08:12:52;12.00;99.90
57636;DHT22;43465;50.728;4.160;2023-11-21T08:15:19;12.10;99.90
57636;DHT22;43465;50.728;4.160;2023-11-21T08:17:46;12.00;99.90
57636;DHT22;43465;50.728;4.160;2023-11-21T08:20:12;11.90;99.90
57636;DHT22;43465;50.728;4.160;2023-11-21T08:22:37;12.00;99.90
57636;DHT22;43465;50.728;4.160;2023-11-21T08:25:06;11.90;99.90
57636;DHT22;43465;50.728;4.160;2023-11-21T08:27:33;11.80;99.90
57636;DHT22;43465;50.728;4.160;2023-11-21T08:30:00;11.80;99.90
57636;DHT22;43465;50.728;4.160;2023-11-21T08:32:26;11.80;99.90
57636;DHT22;43465;50.728;4.160;2023-11-21T08:34:52;11.90;99.90
57636;DHT22;43465;50.728;4.160;2023-11-21T08:37:17;11.80;99.90
57636;DHT22;43465;50.728;4.160;2023-11-21T08:39:44;11.80;99.90
57636;DHT22;43465;50.728;4.160;2023-11-21T08:42:10;12.00;99.90
57636;DHT22;43465;50.728;4.160;2023-11-21T08:44:35;12.10;99.90
57636;DHT22;43465;50.728;4.160;2023-11-21T08:47:01;11.90;99.90
57636;DHT22;43465;50.728;4.160;2023-11-21T08:49:27;11.80;99.90
57636;DHT22;43465;50.728;4.160;2023-11-21T08:51:53;11.90;99.90
57636;DHT22;43465;50.728;4.160;2023-11-21T08:54:21;11.90;99.90
57636;DHT22;43465;50.728;4.160;2023-11-21T08:56:46;12.00;99.90
57636;DHT22;43465;50.728;4.160;2023-11-21T08:59:13;11.90;99.90
57636;DHT22;43465;50.728;4.160;2023-11-21T09:01:39;12.00;99.90
57636;DHT22;43465;50.728;4.160;2023-11-21T09:04:06;12.00;99.90
57636;DHT22;43465;50.728;4.160;2023-11-21T09:06:31;12.10;99.90
57636;DHT22;43465;50.728;4.160;2023-11-21T09:08:57;12.20;99.90
57636;DHT22;43465;50.728;4.160;2023-11-21T09:11:23;12.20;99.90
57636;DHT22;43465;50.728;4.160;2023-11-21T09:13:50;12.20;99.90
57636;DHT22;43465;50.728;4.160;2023-11-21T09:16:16;12.10;99.90
57636;DHT22;43465;50.728;4.160;2023-11-21T09:18:42;11.90;99.90
57636;DHT22;43465;50.728;4.160;2023-11-21T09:21:08;11.90;99.90
57636;DHT22;43465;50.728;4.160;2023-11-21T09:23:35;12.10;99.90
57636;DHT22;43465;50.728;4.160;2023-11-21T09:26:01;12.30;99.90
57636;DHT22;43465;50.728;4.160;2023-11-21T09:28:27;12.20;99.90
57636;DHT22;43465;50.728;4.160;2023-11-21T09:30:53;12.20;99.90
57636;DHT22;43465;50.728;4.160;2023-11-21T09:33:19;12.20;99.90
57636;DHT22;43465;50.728;4.160;2023-11-21T09:35:46;12.20;99.90
57636;DHT22;43465;50.728;4.160;2023-11-21T09:38:12;12.20;99.90
57636;DHT22;43465;50.728;4.160;2023-11-21T09:40:38;12.20;99.90
57636;DHT22;43465;50.728;4.160;2023-11-21T09:43:07;12.30;99.90
57636;DHT22;43465;50.728;4.160;2023-11-21T09:45:38;12.30;99.90
57636;DHT22;43465;50.728;4.160;2023-11-21T09:48:04;12.20;99.90
57636;DHT22;43465;50.728;4.160;2023-11-21T09:50:32;12.20;99.90
57636;DHT22;43465;50.728;4.160;2023-11-21T09:53:18;12.30;99.90
57636;DHT22;43465;50.728;4.160;2023-11-21T09:55:51;12.20;99.90
57636;DHT22;43465;50.728;4.160;2023-11-21T09:58:18;12.30;99.90
57636;DHT22;43465;50.728;4.160;2023-11-21T10:00:46;12.60;99.90
57636;DHT22;43465;50.728;4.160;2023-11-21T10:03:13;12.60;99.90
57636;DHT22;43465;50.728;4.160;2023-11-21T10:05:41;12.50;99.90
57636;DHT22;43465;50.728;4.160;2023-11-21T10:08:08;12.40;99.90
57636;DHT22;43465;50.728;4.160;2023-11-21T10:10:45;12.40;99.90
57636;DHT22;43465;50.728;4.160;2023-11-21T10:13:14;12.50;99.90
57636;DHT22;43465;50.728;4.160;2023-11-21T10:15:42;12.40;99.90
57636;DHT22;43465;50.728;4.160;2023-11-21T10:18:14;12.50;99.90
57636;DHT22;43465;50.728;4.160;2023-11-21T10:20:44;12.60;99.90
57636;DHT22;43465;50.728;4.160;2023-11-21T10:23:18;12.60;99.90
57636;DHT22;43465;50.728;4.160;2023-11-21T10:25:44;12.50;99.90
57636;DHT22;43465;50.728;4.160;2023-11-21T10:28:10;12.60;99.90
57636;DHT22;43465;50.728;4.160;2023-11-21T10:30:37;12.60;99.90
57636;DHT22;43465;50.728;4.160;2023-11-21T10:33:04;12.50;99.90
57636;DHT22;43465;50.728;4.160;2023-11-21T10:35:43;12.40;99.90
57636;DHT22;43465;50.728;4.160;2023-11-21T10:38:12;12.30;99.90
57636;DHT22;43465;50.728;4.160;2023-11-21T10:40:42;12.30;99.90
57636;DHT22;43465;50.728;4.160;2023-11-21T10:43:10;12.30;99.90
57636;DHT22;43465;50.728;4.160;2023-11-21T10:45:39;12.30;99.90
57636;DHT22;43465;50.728;4.160;2023-11-21T10:48:06;12.30;99.90
57636;DHT22;43465;50.728;4.160;2023-11-21T10:50:36;12.20;99.90
57636;DHT22;43465;50.728;4.160;2023-11-21T10:53:05;12.60;99.90
57636;DHT22;43465;50.728;4.160;2023-11-21T10:55:34;12.80;99.90
57636;DHT22;43465;50.728;4.160;2023-11-21T10:58:01;12.90;99.90
57636;DHT22;43465;50.728;4.160;2023-11-21T11:00:29;13.00;99.90
57636;DHT22;43465;50.728;4.160;2023-11-21T11:02:55;13.10;99.90
57636;DHT22;43465;50.728;4.160;2023-11-21T11:05:23;13.20;99.90
57636;DHT22;43465;50.728;4.160;2023-11-21T11:07:58;13.30;99.90
57636;DHT22;43465;50.728;4.160;2023-11-21T11:10:28;13.40;99.90
57636;DHT22;43465;50.728;4.160;2023-11-21T11:12:58;13.40;99.90
57636;DHT22;43465;50.728;4.160;2023-11-21T11:15:25;13.30;99.90
57636;DHT22;43465;50.728;4.160;2023-11-21T11:17:52;13.20;99.90
57636;DHT22;43465;50.728;4.160;2023-11-21T11:20:23;13.10;99.90
57636;DHT22;43465;50.728;4.160;2023-11-21T11:23:30;13.00;99.90
57636;DHT22;43465;50.728;4.160;2023-11-21T11:29:43;12.90;99.90
57636;DHT22;43465;50.728;4.160;2023-11-21T11:35:23;12.70;99.90
57636;DHT22;43465;50.728;4.160;2023-11-21T11:37:50;12.70;99.90
57636;DHT22;43465;50.728;4.160;2023-11-21T11:40:15;12.60;99.90
57636;DHT22;43465;50.728;4.160;2023-11-21T11:42:56;12.60;99.90
57636;DHT22;43465;50.728;4.160;2023-11-21T11:45:31;12.70;99.90
57636;DHT22;43465;50.728;4.160;2023-11-21T11:47:57;12.60;99.90
57636;DHT22;43465;50.728;4.160;2023-11-21T11:50:23;12.60;99.90
57636;DHT22;43465;50.728;4.160;2023-11-21T11:52:51;12.60;99.90
57636;DHT22;43465;50.728;4.160;2023-11-21T11:55:21;12.70;99.90
57636;DHT22;43465;50.728;4.160;2023-11-21T11:57:49;12.70;99.90
57636;DHT22;43465;50.728;4.160;2023-11-21T12:00:19;12.80;99.90
57636;DHT22;43465;50.728;4.160;2023-11-21T12:02:56;12.90;99.90
57636;DHT22;43465;50.728;4.160;2023-11-21T12:05:23;12.90;99.90
57636;DHT22;43465;50.728;4.160;2023-11-21T12:07:59;13.00;99.90
57636;DHT22;43465;50.728;4.160;2023-11-21T12:10:30;13.00;99.90
57636;DHT22;43465;50.728;4.160;2023-11-21T12:12:58;13.00;99.90
57636;DHT22;43465;50.728;4.160;2023-11-21T12:15:24;13.00;99.90
57636;DHT22;43465;50.728;4.160;2023-11-21T12:17:51;13.00;99.90
57636;DHT22;43465;50.728;4.160;2023-11-21T12:20:24;13.10;99.90
57636;DHT22;43465;50.728;4.160;2023-11-21T12:22:54;13.00;99.90
57636;DHT22;43465;50.728;4.160;2023-11-21T12:25:22;13.00;99.90
57636;DHT22;43465;50.728;4.160;2023-11-21T12:27:52;13.00;99.90
57636;DHT22;43465;50.728;4.160;2023-11-21T12:30:22;13.00;99.90
57636;DHT22;43465;50.728;4.160;2023-11-21T12:32:52;12.90;99.90
57636;DHT22;43465;50.728;4.160;2023-11-21T12:35:19;12.90;99.90
57636;DHT22;43465;50.728;4.160;2023-11-21T12:37:46;12.90;99.90
57636;DHT22;43465;50.728;4.160;2023-11-21T12:40:15;12.80;99.90
57636;DHT22;43465;50.728;4.160;2023-11-21T12:42:42;12.60;99.90
57636;DHT22;43465;50.728;4.160;2023-11-21T12:47:35;12.60;99.90
57636;DHT22;43465;50.728;4.160;2023-11-21T12:50:02;12.50;99.90
57636;DHT22;43465;50.728;4.160;2023-11-21T12:52:28;12.40;99.90
57636;DHT22;43465;50.728;4.160;2023-11-21T12:54:54;12.40;99.90
57636;DHT22;43465;50.728;4.160;2023-11-21T12:57:25;12.40;99.90
57636;DHT22;43465;50.728;4.160;2023-11-21T12:59:57;12.40;99.90
57636;DHT22;43465;50.728;4.160;2023-11-21T13:02:26;12.40;99.90
57636;DHT22;43465;50.728;4.160;2023-11-21T13:04:53;12.30;99.90
57636;DHT22;43465;50.728;4.160;2023-11-21T13:07:19;12.30;99.90
57636;DHT22;43465;50.728;4.160;2023-11-21T13:09:45;12.40;99.90
57636;DHT22;43465;50.728;4.160;2023-11-21T13:12:11;12.50;99.90
57636;DHT22;43465;50.728;4.160;2023-11-21T13:14:40;12.50;99.90
57636;DHT22;43465;50.728;4.160;2023-11-21T13:17:05;12.50;99.90
57636;DHT22;43465;50.728;4.160;2023-11-21T13:19:31;12.50;99.90
57636;DHT22;43465;50.728;4.160;2023-11-21T13:21:57;12.50;99.90
57636;DHT22;43465;50.728;4.160;2023-11-21T13:24:24;12.50;99.90
57636;DHT22;43465;50.728;4.160;2023-11-21T13:26:51;12.40;99.90
57636;DHT22;43465;50.728;4.160;2023-11-21T13:29:17;12.40;99.90
57636;DHT22;43465;50.728;4.160;2023-11-21T13:31:42;12.40;99.90
57636;DHT22;43465;50.728;4.160;2023-11-21T13:34:08;12.40;99.90
57636;DHT22;43465;50.728;4.160;2023-11-21T13:36:34;12.40;99.90
57636;DHT22;43465;50.728;4.160;2023-11-21T13:39:01;12.40;99.90
57636;DHT22;43465;50.728;4.160;2023-11-21T13:41:40;12.40;99.90
57636;DHT22;43465;50.728;4.160;2023-11-21T13:44:07;12.30;99.90
57636;DHT22;43465;50.728;4.160;2023-11-21T13:46:51;12.20;99.90
57636;DHT22;43465;50.728;4.160;2023-11-21T13:49:17;12.20;99.90
57636;DHT22;43465;50.728;4.160;2023-11-21T13:51:46;12.20;99.90
57636;DHT22;43465;50.728;4.160;2023-11-21T13:54:16;12.10;99.90
57636;DHT22;43465;50.728;4.160;2023-11-21T13:56:42;12.10;99.90
57636;DHT22;43465;50.728;4.160;2023-11-21T13:59:10;12.10;99.90
57636;DHT22;43465;50.728;4.160;2023-11-21T14:01:56;12.10;99.90
57636;DHT22;43465;50.728;4.160;2023-11-21T14:04:22;12.20;99.90
57636;DHT22;43465;50.728;4.160;2023-11-21T14:06:51;12.20;99.90
57636;DHT22;43465;50.728;4.160;2023-11-21T14:09:22;12.20;99.90
57636;DHT22;43465;50.728;4.160;2023-11-21T14:11:55;12.10;99.90
57636;DHT22;43465;50.728;4.160;2023-11-21T14:14:26;12.10;99.90
57636;DHT22;43465;50.728;4.160;2023-11-21T14:16:55;12.10;99.90
57636;DHT22;43465;50.728;4.160;2023-11-21T14:19:24;12.00;99.90
57636;DHT22;43465;50.728;4.160;2023-11-21T14:21:55;12.10;99.90
57636;DHT22;43465;50.728;4.160;2023-11-21T14:24:21;12.10;99.90
57636;DHT22;43465;50.728;4.160;2023-11-21T14:26:48;12.20;99.90
57636;DHT22;43465;50.728;4.160;2023-11-21T14:29:16;12.20;99.90
57636;DHT22;43465;50.728;4.160;2023-11-21T14:31:48;12.20;99.90
57636;DHT22;43465;50.728;4.160;2023-11-21T14:34:14;12.20;99.90
57636;DHT22;43465;50.728;4.160;2023-11-21T14:36:41;12.20;99.90
57636;DHT22;43465;50.728;4.160;2023-11-21T14:39:06;12.10;99.90
57636;DHT22;43465;50.728;4.160;2023-11-21T14:41:35;12.00;99.90
57636;DHT22;43465;50.728;4.160;2023-11-21T14:44:03;12.00;99.90
57636;DHT22;43465;50.728;4.160;2023-11-21T14:46:30;11.90;99.90
57636;DHT22;43465;50.728;4.160;2023-11-21T14:48:56;11.90;99.90
57636;DHT22;43465;50.728;4.160;2023-11-21T14:51:28;11.90;99.90
57636;DHT22;43465;50.728;4.160;2023-11-21T14:54:00;12.00;99.90
57636;DHT22;43465;50.728;4.160;2023-11-21T14:56:32;12.00;99.90
57636;DHT22;43465;50.728;4.160;2023-11-21T14:59:00;12.00;99.90
57636;DHT22;43465;50.728;4.160;2023-11-21T15:01:32;12.00;99.90
57636;DHT22;43465;50.728;4.160;2023-11-21T15:04:10;12.00;99.90
57636;DHT22;43465;50.728;4.160;2023-11-21T15:06:57;12.00;99.90
57636;DHT22;43465;50.728;4.160;2023-11-21T15:09:24;11.90;99.90
57636;DHT22;43465;50.728;4.160;2023-11-21T15:12:02;11.90;99.90
57636;DHT22;43465;50.728;4.160;2023-11-21T15:14:44;11.90;99.90
57636;DHT22;43465;50.728;4.160;2023-11-21T15:17:12;11.80;99.90
57636;DHT22;43465;50.728;4.160;2023-11-21T15:19:42;11.80;99.90
57636;DHT22;43465;50.728;4.160;2023-11-21T15:22:09;11.70;99.90
57636;DHT22;43465;50.728;4.160;2023-11-21T15:24:36;11.80;99.90
57636;DHT22;43465;50.728;4.160;2023-11-21T15:27:01;11.70;99.90
57636;DHT22;43465;50.728;4.160;2023-11-21T15:29:29;11.70;99.90
57636;DHT22;43465;50.728;4.160;2023-11-21T15:31:54;11.70;99.90
57636;DHT22;43465;50.728;4.160;2023-11-21T15:34:22;11.70;99.90
57636;DHT22;43465;50.728;4.160;2023-11-21T15:36:47;11.80;99.90
57636;DHT22;43465;50.728;4.160;2023-11-21T15:39:16;11.80;99.90
57636;DHT22;43465;50.728;4.160;2023-11-21T15:41:42;11.80;99.90